createdAt,value
2022-12-18T00:00:43.578Z,25.40
2022-12-18T00:06:09.988Z,23.50
2022-12-18T00:11:18.194Z,23.90
2022-12-18T00:16:25.939Z,25.20
2022-12-18T00:21:33.425Z,27.20
2022-12-18T00:26:39.939Z,27.90
2022-12-18T00:31:47.128Z,26.70
2022-12-18T00:36:53.560Z,23.80
2022-12-18T00:42:19.953Z,24.30
2022-12-18T00:47:27.492Z,25.40
2022-12-18T00:52:33.445Z,26.30
2022-12-18T00:57:39.319Z,26.20
2022-12-18T01:02:46.462Z,22.70
2022-12-18T01:07:52.438Z,20.50
2022-12-18T01:12:58.997Z,22.10
2022-12-18T01:18:05.097Z,22.00
2022-12-18T01:23:10.865Z,24.00
2022-12-18T01:28:16.529Z,23.90
2022-12-18T01:33:23.301Z,21.70
2022-12-18T01:38:31.008Z,20.50
2022-12-18T01:43:52.736Z,20.80
2022-12-18T01:49:01.297Z,21.80
2022-12-18T01:54:07.549Z,22.30
2022-12-18T01:59:14.283Z,18.40
2022-12-18T02:04:25.657Z,18.10
2022-12-18T02:09:38.731Z,19.80
2022-12-18T02:14:55.153Z,21.10
2022-12-18T02:20:11.149Z,19.80
2022-12-18T02:25:28.964Z,18.00
2022-12-18T02:30:38.776Z,18.50
2022-12-18T02:35:48.341Z,20.40
2022-12-18T02:40:57.756Z,20.20
2022-12-18T02:46:17.824Z,15.30
2022-12-18T02:51:30.530Z,17.30
2022-12-18T02:56:42.797Z,17.80
2022-12-18T03:01:55.250Z,18.80
2022-12-18T03:07:07.808Z,17.80
2022-12-18T03:12:26.412Z,16.40
2022-12-18T03:17:36.272Z,16.10
2022-12-18T03:22:45.380Z,16.70
2022-12-18T03:27:59.751Z,17.90
2022-12-18T03:33:09.322Z,15.00
2022-12-18T03:38:17.206Z,15.00
2022-12-18T03:43:36.807Z,14.30
2022-12-18T03:48:49.091Z,17.10
2022-12-18T03:53:59.480Z,12.70
2022-12-18T03:59:11.173Z,13.80
2022-12-18T04:04:20.121Z,13.20
2022-12-18T04:09:26.997Z,15.00
2022-12-18T04:14:36.699Z,14.30
2022-12-18T04:19:43.213Z,13.70
2022-12-18T04:24:50.082Z,13.70
2022-12-18T04:30:02.586Z,15.20
2022-12-18T04:35:11.682Z,13.90
2022-12-18T04:40:18.958Z,15.50
2022-12-18T04:45:26.079Z,12.40
2022-12-18T04:50:32.416Z,13.70
2022-12-18T04:55:38.219Z,13.90
2022-12-18T05:00:44.864Z,14.30
2022-12-18T05:05:53.248Z,12.90
2022-12-18T05:11:03.405Z,14.00
2022-12-18T05:16:09.920Z,12.70
2022-12-18T05:21:15.812Z,13.90
2022-12-18T05:26:21.864Z,13.50
2022-12-18T05:31:28.101Z,14.70
2022-12-18T05:36:34.095Z,14.40
2022-12-18T05:41:40.022Z,13.70
2022-12-18T05:46:46.069Z,14.50
2022-12-18T05:51:52.111Z,15.30
2022-12-18T05:56:59.229Z,14.50
2022-12-18T06:02:05.253Z,14.70
2022-12-18T06:07:11.097Z,15.10
2022-12-18T06:12:16.834Z,18.50
2022-12-18T06:25:46.065Z,18.60
2022-12-18T06:30:52.014Z,19.40
2022-12-18T06:36:03.385Z,19.30
2022-12-18T06:41:11.291Z,19.10
2022-12-18T06:46:17.252Z,20.20
2022-12-18T06:51:26.319Z,22.00
2022-12-18T06:56:32.369Z,21.20
2022-12-18T07:01:38.438Z,22.10
2022-12-18T07:06:44.657Z,20.70
2022-12-18T07:11:50.503Z,22.90
2022-12-18T07:16:56.390Z,23.90
2022-12-18T07:22:02.867Z,24.20
2022-12-18T07:27:08.821Z,22.70
2022-12-18T07:32:16.186Z,25.30
2022-12-18T07:37:22.054Z,23.90
2022-12-18T07:42:34.045Z,27.00
2022-12-18T07:47:42.370Z,25.60
2022-12-18T07:52:48.165Z,28.10
2022-12-18T07:57:59.212Z,28.60
2022-12-18T08:03:07.438Z,30.90
2022-12-18T08:08:13.422Z,29.10
2022-12-18T08:13:19.206Z,30.40
2022-12-18T08:18:25.165Z,31.30
2022-12-18T08:23:31.117Z,32.90
2022-12-18T08:28:37.124Z,31.80
2022-12-18T08:33:43.594Z,30.20
2022-12-18T08:38:50.809Z,33.20
2022-12-18T08:44:15.890Z,32.40
2022-12-18T08:49:21.709Z,34.40
2022-12-18T08:54:27.950Z,31.40
2022-12-18T08:59:33.877Z,31.70
2022-12-18T09:04:41.048Z,33.20
2022-12-18T09:09:51.622Z,32.00
2022-12-18T09:14:57.697Z,29.90
2022-12-18T09:20:04.409Z,32.10
2022-12-18T09:25:10.938Z,33.10
2022-12-18T09:30:17.362Z,30.90
2022-12-18T09:35:23.509Z,30.50
2022-12-18T09:40:35.343Z,28.90
2022-12-18T09:45:48.698Z,29.70
2022-12-18T09:50:59.512Z,28.10
2022-12-18T09:56:08.186Z,30.80
2022-12-18T10:01:15.420Z,31.40
2022-12-18T10:06:28.502Z,29.40
2022-12-18T10:11:48.010Z,28.90
2022-12-18T10:17:07.444Z,30.30
2022-12-18T10:22:24.986Z,33.90
2022-12-18T10:27:33.090Z,31.00
2022-12-18T10:32:39.560Z,31.10
2022-12-18T10:38:02.945Z,33.40
2022-12-18T10:43:15.560Z,28.50
2022-12-18T10:48:25.206Z,28.50
2022-12-18T10:53:34.216Z,28.80
2022-12-18T10:58:41.699Z,31.10
2022-12-18T11:04:02.605Z,31.40
2022-12-18T11:14:29.024Z,28.90
2022-12-18T11:19:38.046Z,28.90
2022-12-18T11:24:53.118Z,27.90
2022-12-18T11:30:21.693Z,29.70
2022-12-18T11:35:39.414Z,29.50
2022-12-18T11:40:51.698Z,30.30
2022-12-18T11:46:06.637Z,27.60
2022-12-18T11:51:18.321Z,30.90
2022-12-18T11:56:36.592Z,27.80
2022-12-18T12:01:51.997Z,35.00
2022-12-18T12:07:09.012Z,32.40
2022-12-18T12:12:48.979Z,48.70
2022-12-18T12:18:06.846Z,36.40
2022-12-18T12:23:28.074Z,30.80
2022-12-18T12:28:54.738Z,37.60
2022-12-18T12:34:11.095Z,60.70
2022-12-18T12:39:21.482Z,50.80
2022-12-18T12:44:31.708Z,40.80
2022-12-18T12:55:11.545Z,40.00
2022-12-18T13:00:23.068Z,40.50
2022-12-18T13:05:34.664Z,42.30
2022-12-18T13:10:42.260Z,46.60
2022-12-18T13:15:51.460Z,44.10
2022-12-18T13:21:16.456Z,40.70
2022-12-18T13:26:34.308Z,46.30
2022-12-18T13:32:23.238Z,42.50
2022-12-18T13:37:54.089Z,35.10
2022-12-18T13:43:15.806Z,35.10
2022-12-18T13:48:25.512Z,37.10
2022-12-18T13:53:36.769Z,42.30
2022-12-18T13:58:43.459Z,42.40
2022-12-18T14:03:49.945Z,40.10
2022-12-18T14:08:58.013Z,37.70
2022-12-18T14:14:05.475Z,32.90
2022-12-18T14:19:16.061Z,34.80
2022-12-18T14:24:23.151Z,35.10
2022-12-18T14:29:30.710Z,34.20
2022-12-18T14:34:36.645Z,36.20
2022-12-18T14:39:53.666Z,36.70
2022-12-18T14:45:49.190Z,32.40
2022-12-18T14:51:01.878Z,32.80
2022-12-18T14:56:17.158Z,37.40
2022-12-18T15:01:27.587Z,37.30
2022-12-18T15:06:37.396Z,38.70
2022-12-18T15:11:49.625Z,33.30
2022-12-18T15:16:57.480Z,37.00
2022-12-18T15:22:06.597Z,63.40
2022-12-18T15:27:25.294Z,68.20
2022-12-18T15:32:31.247Z,41.70
2022-12-18T15:37:42.100Z,41.00
2022-12-18T15:43:08.585Z,38.30
2022-12-18T15:48:22.128Z,48.00
2022-12-18T15:53:31.292Z,38.20
2022-12-18T15:58:37.241Z,39.30
2022-12-18T16:03:43.506Z,47.10
2022-12-18T16:08:50.102Z,42.90
2022-12-18T16:13:56.078Z,45.40
2022-12-18T16:19:01.818Z,44.30
2022-12-18T16:24:15.950Z,41.70
2022-12-18T16:29:28.459Z,44.10
2022-12-18T16:34:36.255Z,36.30
2022-12-18T16:39:43.268Z,141.80
2022-12-18T16:44:50.298Z,160.60
2022-12-18T16:49:57.359Z,99.60
2022-12-18T16:55:03.149Z,38.70
2022-12-18T17:00:11.289Z,39.20
2022-12-18T17:05:17.399Z,37.60
2022-12-18T17:10:23.314Z,36.20
2022-12-18T17:15:29.078Z,34.70
2022-12-18T17:20:34.828Z,34.40
2022-12-18T17:25:42.550Z,36.50
2022-12-18T17:30:48.430Z,29.40
2022-12-18T17:35:54.473Z,38.40
2022-12-18T17:41:03.620Z,34.70
2022-12-18T17:46:09.542Z,34.60
2022-12-18T17:51:16.454Z,38.20
2022-12-18T17:56:25.225Z,37.70
2022-12-18T18:01:31.216Z,64.60
2022-12-18T18:06:39.156Z,46.40
2022-12-18T18:12:04.633Z,34.30
2022-12-18T18:17:10.745Z,33.00
2022-12-18T18:22:20.281Z,36.80
2022-12-18T18:27:26.301Z,47.50
2022-12-18T18:32:32.832Z,36.70
2022-12-18T18:37:38.999Z,38.30
2022-12-18T18:42:46.851Z,54.20
2022-12-18T18:47:52.665Z,29.30
2022-12-18T18:52:58.400Z,35.90
2022-12-18T18:58:04.163Z,96.10
2022-12-18T19:03:12.505Z,76.90
2022-12-18T19:08:18.906Z,63.50
2022-12-18T19:13:27.126Z,35.00
2022-12-18T19:18:33.771Z,33.60
2022-12-18T19:23:39.585Z,38.50
2022-12-18T19:28:45.846Z,47.60
2022-12-18T19:33:52.645Z,33.40
2022-12-18T19:39:00.916Z,49.00
2022-12-18T19:44:08.819Z,63.10
2022-12-18T19:49:17.554Z,43.60
2022-12-18T19:54:24.132Z,30.70
2022-12-18T19:59:32.153Z,26.00
2022-12-18T20:04:37.864Z,39.70
2022-12-18T20:09:43.624Z,59.00
2022-12-18T20:14:50.294Z,37.00
2022-12-18T20:19:56.625Z,27.80
2022-12-18T20:25:03.225Z,29.80
2022-12-18T20:30:11.941Z,34.90
2022-12-18T20:35:18.281Z,28.80
2022-12-18T20:40:25.926Z,23.80
2022-12-18T20:45:31.827Z,26.50
2022-12-18T20:50:37.758Z,30.10
2022-12-18T20:55:46.432Z,26.50
2022-12-18T21:01:02.107Z,30.70
2022-12-18T21:06:09.068Z,29.60
2022-12-18T21:11:36.383Z,29.60
2022-12-18T21:16:43.952Z,25.40
2022-12-18T21:21:52.027Z,24.70
2022-12-18T21:27:01.876Z,25.40
2022-12-18T21:32:09.280Z,24.20
2022-12-18T21:37:15.060Z,24.60
2022-12-18T21:42:39.860Z,24.30
2022-12-18T21:47:45.750Z,26.90
2022-12-18T21:52:51.561Z,25.90
2022-12-18T21:57:57.629Z,21.40
2022-12-18T22:03:17.685Z,21.40
2022-12-18T22:08:25.459Z,24.10
2022-12-18T22:13:31.394Z,25.20
2022-12-18T22:18:37.159Z,24.40
2022-12-18T22:23:43.069Z,23.00
2022-12-18T22:29:07.990Z,24.90
2022-12-18T22:34:13.904Z,24.50
2022-12-18T22:39:21.918Z,34.10
2022-12-18T22:44:27.855Z,26.00
2022-12-18T22:49:34.908Z,24.60
2022-12-18T22:54:41.427Z,20.90
2022-12-18T22:59:47.600Z,21.60
2022-12-18T23:04:53.406Z,22.50
2022-12-18T23:10:00.744Z,23.80
2022-12-18T23:15:07.858Z,49.40
2022-12-18T23:20:14.063Z,24.90
2022-12-18T23:25:19.872Z,21.10
2022-12-18T23:30:26.213Z,23.10
2022-12-18T23:35:32.404Z,26.80
2022-12-18T23:40:38.144Z,24.80
2022-12-18T23:45:45.411Z,18.90
2022-12-18T23:50:51.185Z,22.30
2022-12-18T23:55:56.959Z,23.90
